createdAt,value
2022-10-15T00:00:09.743Z,22.70
2022-10-15T00:02:40.170Z,21.20
2022-10-15T00:05:10.769Z,21.42
2022-10-15T00:07:41.651Z,21.33
2022-10-15T00:10:12.156Z,22.82
2022-10-15T00:12:43.043Z,21.02
2022-10-15T00:15:13.999Z,21.57
2022-10-15T00:17:44.434Z,22.82
2022-10-15T00:20:15.444Z,22.62
2022-10-15T00:22:46.145Z,24.20
2022-10-15T00:25:16.579Z,27.40
2022-10-15T00:27:46.997Z,26.45
2022-10-15T00:30:17.460Z,26.30
2022-10-15T00:32:47.803Z,25.88
2022-10-15T00:35:18.680Z,26.45
2022-10-15T00:37:49.111Z,29.05
2022-10-15T00:40:20.159Z,26.93
2022-10-15T00:42:50.572Z,29.07
2022-10-15T00:45:21.029Z,27.90
2022-10-15T00:47:53.178Z,27.93
2022-10-15T00:50:26.385Z,27.50
2022-10-15T00:53:02.783Z,27.93
2022-10-15T00:55:39.635Z,28.47
2022-10-15T00:58:15.587Z,27.05
2022-10-15T01:00:46.107Z,28.75
2022-10-15T01:03:17.054Z,29.57
2022-10-15T01:05:50.159Z,28.70
2022-10-15T01:08:20.760Z,28.57
2022-10-15T01:11:16.257Z,27.75
2022-10-15T01:14:05.074Z,29.40
2022-10-15T01:16:38.640Z,30.55
2022-10-15T01:19:24.402Z,28.15
2022-10-15T01:22:06.973Z,31.60
2022-10-15T01:24:52.436Z,29.82
2022-10-15T01:27:31.581Z,30.12
2022-10-15T01:30:08.001Z,30.15
2022-10-15T01:32:41.458Z,33.30
2022-10-15T01:35:23.911Z,30.72
2022-10-15T01:37:57.357Z,28.62
2022-10-15T01:40:39.650Z,29.60
2022-10-15T01:43:19.095Z,31.60
2022-10-15T01:45:52.674Z,31.17
2022-10-15T01:48:25.493Z,30.30
2022-10-15T01:50:58.969Z,29.67
2022-10-15T01:53:33.455Z,31.85
2022-10-15T01:56:07.124Z,32.98
2022-10-15T01:58:40.935Z,30.25
2022-10-15T02:01:11.441Z,31.05
2022-10-15T02:03:48.216Z,30.37
2022-10-15T02:06:24.339Z,32.83
2022-10-15T02:09:00.281Z,32.08
2022-10-15T02:11:32.449Z,31.25
2022-10-15T02:14:05.828Z,29.82
2022-10-15T02:16:48.110Z,32.13
2022-10-15T02:19:27.284Z,29.52
2022-10-15T02:22:03.371Z,30.77
2022-10-15T02:24:36.822Z,30.15
2022-10-15T02:27:09.776Z,29.32
2022-10-15T02:29:42.239Z,32.78
2022-10-15T02:32:14.176Z,28.85
2022-10-15T02:34:47.183Z,29.50
2022-10-15T02:37:20.670Z,29.50
2022-10-15T02:39:51.137Z,34.15
2022-10-15T02:42:22.268Z,30.80
2022-10-15T02:44:53.055Z,30.90
2022-10-15T02:49:53.947Z,29.20
2022-10-15T02:52:24.574Z,30.30
2022-10-15T02:54:55.252Z,30.37
2022-10-15T02:57:25.887Z,28.73
2022-10-15T02:59:56.578Z,29.13
2022-10-15T03:02:27.063Z,28.57
2022-10-15T03:04:57.459Z,28.62
2022-10-15T03:07:28.039Z,28.95
2022-10-15T03:09:58.444Z,29.92
2022-10-15T03:12:28.977Z,31.20
2022-10-15T03:14:59.373Z,28.35
2022-10-15T03:17:29.862Z,28.20
2022-10-15T03:20:00.238Z,30.77
2022-10-15T03:22:30.578Z,26.85
2022-10-15T03:25:00.984Z,26.97
2022-10-15T03:27:31.435Z,29.67
2022-10-15T03:30:01.815Z,31.27
2022-10-15T03:32:35.513Z,28.55
2022-10-15T03:35:04.959Z,30.60
2022-10-15T03:37:35.425Z,32.40
2022-10-15T03:40:10.547Z,27.32
2022-10-15T03:42:38.656Z,28.23
2022-10-15T03:45:10.248Z,30.05
2022-10-15T03:47:40.627Z,29.27
2022-10-15T03:50:11.018Z,31.25
2022-10-15T03:52:41.781Z,30.85
2022-10-15T03:55:13.123Z,29.55
2022-10-15T03:57:43.668Z,32.00
2022-10-15T04:00:15.190Z,28.60
2022-10-15T04:02:45.588Z,29.05
2022-10-15T04:05:16.033Z,28.83
2022-10-15T04:07:46.374Z,27.67
2022-10-15T04:10:16.749Z,27.85
2022-10-15T04:12:47.127Z,31.25
2022-10-15T04:15:17.614Z,27.70
2022-10-15T04:17:48.173Z,29.48
2022-10-15T04:20:18.628Z,29.48
2022-10-15T04:22:49.073Z,29.92
2022-10-15T04:25:19.450Z,30.45
2022-10-15T04:27:49.769Z,27.00
2022-10-15T04:30:20.345Z,29.10
2022-10-15T04:32:53.050Z,28.52
2022-10-15T04:35:23.431Z,28.52
2022-10-15T04:37:53.767Z,26.20
2022-10-15T04:40:24.255Z,29.23
2022-10-15T04:42:54.613Z,27.70
2022-10-15T04:45:24.932Z,32.00
2022-10-15T04:47:55.537Z,28.47
2022-10-15T04:50:25.918Z,27.13
2022-10-15T04:52:56.308Z,25.60
2022-10-15T04:55:26.704Z,26.05
2022-10-15T04:57:57.202Z,26.50
2022-10-15T05:00:27.697Z,25.00
2022-10-15T05:03:00.852Z,23.80
2022-10-15T05:05:31.235Z,25.95
2022-10-15T05:08:02.984Z,25.20
2022-10-15T05:10:33.283Z,29.32
2022-10-15T05:13:03.718Z,25.95
2022-10-15T05:15:34.128Z,26.35
2022-10-15T05:18:04.522Z,24.23
2022-10-15T05:20:35.078Z,25.10
2022-10-15T05:23:06.293Z,22.42
2022-10-15T05:25:36.673Z,24.92
2022-10-15T05:28:06.997Z,23.35
2022-10-15T05:30:37.380Z,24.30
2022-10-15T05:33:07.665Z,23.38
2022-10-15T05:35:38.425Z,22.62
2022-10-15T05:38:08.787Z,21.20
2022-10-15T05:40:39.261Z,22.85
2022-10-15T05:43:09.604Z,22.77
2022-10-15T05:45:40.083Z,20.90
2022-10-15T05:48:10.504Z,23.10
2022-10-15T05:50:40.902Z,20.92
2022-10-15T05:53:11.327Z,23.15
2022-10-15T05:55:41.903Z,23.25
2022-10-15T05:58:12.330Z,23.65
2022-10-15T06:00:42.737Z,23.30
2022-10-15T06:03:14.924Z,22.55
2022-10-15T06:05:45.308Z,24.43
2022-10-15T06:08:16.015Z,21.60
2022-10-15T06:10:46.391Z,22.50
2022-10-15T06:13:17.693Z,24.10
2022-10-15T06:15:48.078Z,25.77
2022-10-15T06:18:18.413Z,22.42
2022-10-15T06:20:55.013Z,22.48
2022-10-15T06:23:25.524Z,23.30
2022-10-15T06:25:56.189Z,24.07
2022-10-15T06:28:26.756Z,27.45
2022-10-15T06:30:59.865Z,24.95
2022-10-15T06:33:31.162Z,22.00
2022-10-15T06:36:06.977Z,25.10
2022-10-15T06:38:39.288Z,19.73
2022-10-15T06:41:09.681Z,23.47
2022-10-15T06:43:40.412Z,20.27
2022-10-15T06:46:11.070Z,23.00
2022-10-15T06:48:41.479Z,20.05
2022-10-15T06:51:12.241Z,18.92
2022-10-15T06:53:43.915Z,20.05
2022-10-15T06:56:14.290Z,21.07
2022-10-15T06:58:44.748Z,20.12
2022-10-15T07:01:15.112Z,21.15
2022-10-15T07:03:45.476Z,20.70
2022-10-15T07:06:15.897Z,17.02
2022-10-15T07:08:46.331Z,20.15
2022-10-15T07:11:16.810Z,17.37
2022-10-15T07:13:47.356Z,18.15
2022-10-15T07:16:17.782Z,17.17
2022-10-15T07:18:49.366Z,17.92
2022-10-15T07:21:19.761Z,18.67
2022-10-15T07:23:50.182Z,18.92
2022-10-15T07:26:20.583Z,16.25
2022-10-15T07:28:50.977Z,17.98
2022-10-15T07:31:21.486Z,15.93
2022-10-15T07:33:51.886Z,16.15
2022-10-15T07:36:22.355Z,15.95
2022-10-15T07:38:52.810Z,16.55
2022-10-15T07:41:23.437Z,21.25
2022-10-15T07:43:53.910Z,16.97
2022-10-15T07:46:24.297Z,14.87
2022-10-15T07:48:54.689Z,14.83
2022-10-15T07:51:25.004Z,13.78
2022-10-15T07:53:56.113Z,16.27
2022-10-15T07:56:26.511Z,14.13
2022-10-15T07:58:56.897Z,16.42
2022-10-15T08:01:27.223Z,14.47
2022-10-15T08:03:58.034Z,14.93
2022-10-15T08:06:28.431Z,13.95
2022-10-15T08:08:59.153Z,15.18
2022-10-15T08:11:29.605Z,15.68
2022-10-15T08:14:00.028Z,12.50
2022-10-15T08:16:30.798Z,13.13
2022-10-15T08:19:01.270Z,12.28
2022-10-15T08:21:31.668Z,12.50
2022-10-15T08:24:02.367Z,12.18
2022-10-15T08:26:32.831Z,12.65
2022-10-15T08:29:03.533Z,12.63
2022-10-15T08:31:34.375Z,13.05
2022-10-15T08:34:04.766Z,12.63
2022-10-15T08:36:35.594Z,12.75
2022-10-15T08:39:07.482Z,11.53
2022-10-15T08:41:43.895Z,11.43
2022-10-15T08:44:26.413Z,13.03
2022-10-15T08:46:59.871Z,13.28
2022-10-15T08:49:48.220Z,10.55
2022-10-15T08:52:44.807Z,11.48
2022-10-15T08:55:18.135Z,15.23
2022-10-15T08:58:07.970Z,11.35
2022-10-15T09:00:56.569Z,11.50
2022-10-15T09:03:41.869Z,10.53
2022-10-15T09:06:15.336Z,11.08
2022-10-15T09:09:22.507Z,12.30
2022-10-15T09:11:55.906Z,12.78
2022-10-15T09:14:32.359Z,12.10
2022-10-15T09:17:21.752Z,11.83
2022-10-15T09:19:58.011Z,10.95
2022-10-15T09:22:31.096Z,9.58
2022-10-15T09:25:03.807Z,10.43
2022-10-15T09:27:39.721Z,10.00
2022-10-15T09:30:37.713Z,10.88
2022-10-15T09:33:13.974Z,10.90
2022-10-15T09:35:56.586Z,13.03
2022-10-15T09:38:41.348Z,11.25
2022-10-15T09:41:16.597Z,12.43
2022-10-15T09:43:50.478Z,10.85
2022-10-15T09:46:20.940Z,11.95
2022-10-15T09:49:05.826Z,10.95
2022-10-15T09:52:03.275Z,11.78
2022-10-15T09:54:51.795Z,13.60
2022-10-15T09:57:24.601Z,10.68
2022-10-15T10:00:03.722Z,10.50
2022-10-15T10:02:34.186Z,10.32
2022-10-15T10:05:33.663Z,10.53
2022-10-15T10:08:13.071Z,9.35
2022-10-15T10:10:46.089Z,9.73
2022-10-15T10:13:28.194Z,8.95
2022-10-15T10:16:05.336Z,9.80
2022-10-15T10:18:37.649Z,9.25
2022-10-15T10:21:22.927Z,9.75
2022-10-15T10:23:53.481Z,9.83
2022-10-15T10:26:24.055Z,9.28
2022-10-15T10:29:05.031Z,9.10
2022-10-15T10:31:36.890Z,9.43
2022-10-15T10:34:07.276Z,9.73
2022-10-15T10:36:40.668Z,9.40
2022-10-15T10:39:15.629Z,9.28
2022-10-15T10:41:55.010Z,8.65
2022-10-15T10:44:34.212Z,9.60
2022-10-15T10:47:10.425Z,9.80
2022-10-15T10:49:46.999Z,9.73
2022-10-15T10:52:28.692Z,10.60
2022-10-15T10:58:00.860Z,9.63
2022-10-15T11:00:43.393Z,10.90
2022-10-15T11:03:28.631Z,9.18
2022-10-15T11:06:14.348Z,9.23
2022-10-15T11:09:05.757Z,9.48
2022-10-15T11:11:41.912Z,9.38
2022-10-15T11:14:30.424Z,10.13
2022-10-15T11:17:15.684Z,9.03
2022-10-15T11:20:26.852Z,18.12
2022-10-15T11:22:51.018Z,10.00
2022-10-15T11:25:36.561Z,8.48
2022-10-15T11:28:26.523Z,8.25
2022-10-15T11:31:08.315Z,9.50
2022-10-15T11:33:50.286Z,7.70
2022-10-15T11:36:26.197Z,7.30
2022-10-15T11:39:15.827Z,10.13
2022-10-15T11:41:55.216Z,7.83
2022-10-15T11:44:31.456Z,7.90
2022-10-15T11:47:23.028Z,7.87
2022-10-15T11:50:14.898Z,8.18
2022-10-15T11:53:20.410Z,7.40
2022-10-15T11:56:09.074Z,6.85
2022-10-15T12:01:38.694Z,11.75
2022-10-15T12:04:20.917Z,7.50
2022-10-15T12:06:54.566Z,7.28
2022-10-15T12:09:28.010Z,8.15
2022-10-15T12:12:10.915Z,7.05
2022-10-15T12:14:53.438Z,6.60
2022-10-15T12:17:41.938Z,5.72
2022-10-15T12:20:18.404Z,8.08
2022-10-15T12:22:54.421Z,6.67
2022-10-15T12:25:39.866Z,8.48
2022-10-15T12:28:13.433Z,6.33
2022-10-15T12:30:46.139Z,7.33
2022-10-15T12:33:34.800Z,6.95
2022-10-15T12:36:25.238Z,6.60
2022-10-15T12:39:11.591Z,5.90
2022-10-15T12:41:42.187Z,6.05
2022-10-15T12:44:30.630Z,6.00
2022-10-15T12:47:01.490Z,7.20
2022-10-15T12:49:34.953Z,5.65
2022-10-15T12:52:11.058Z,5.15
2022-10-15T12:54:46.113Z,5.10
2022-10-15T12:57:34.511Z,5.42
2022-10-15T13:00:24.603Z,5.10
2022-10-15T13:03:01.220Z,6.35
2022-10-15T13:05:36.717Z,4.75
2022-10-15T13:08:10.216Z,5.70
2022-10-15T13:10:43.755Z,4.00
2022-10-15T13:13:17.376Z,4.40
2022-10-15T13:16:06.928Z,6.78
2022-10-15T13:18:37.604Z,4.60
2022-10-15T13:21:12.939Z,3.90
2022-10-15T13:23:43.095Z,4.30
2022-10-15T13:26:27.072Z,12.03
2022-10-15T13:29:01.237Z,7.45
2022-10-15T13:31:34.349Z,4.53
2022-10-15T13:34:07.806Z,4.40
2022-10-15T13:36:39.683Z,5.28
2022-10-15T13:39:25.914Z,4.33
2022-10-15T13:42:17.996Z,4.62
2022-10-15T13:45:18.649Z,4.50
2022-10-15T13:47:52.066Z,3.75
2022-10-15T13:50:25.531Z,3.75
2022-10-15T13:53:21.514Z,5.72
2022-10-15T13:55:55.224Z,3.52
2022-10-15T13:58:37.046Z,3.60
2022-10-15T14:01:20.391Z,3.60
2022-10-15T14:03:55.496Z,3.67
2022-10-15T14:06:34.684Z,3.10
2022-10-15T14:09:27.147Z,3.17
2022-10-15T14:12:02.213Z,5.15
2022-10-15T14:14:40.452Z,3.75
2022-10-15T14:17:19.621Z,3.70
2022-10-15T14:20:14.706Z,3.72
2022-10-15T14:22:29.971Z,3.42
2022-10-15T14:25:00.709Z,3.70
2022-10-15T14:27:31.159Z,3.27
2022-10-15T14:30:02.608Z,3.17
2022-10-15T14:32:47.751Z,3.12
2022-10-15T14:35:28.018Z,5.65
2022-10-15T14:38:04.168Z,5.33
2022-10-15T14:40:34.581Z,3.35
2022-10-15T14:43:10.729Z,5.35
2022-10-15T14:45:44.475Z,3.62
2022-10-15T14:48:23.663Z,3.72
2022-10-15T14:50:55.897Z,4.12
2022-10-15T14:53:29.814Z,4.08
2022-10-15T14:56:03.791Z,4.80
2022-10-15T14:58:34.800Z,3.85
2022-10-15T15:01:08.531Z,4.17
2022-10-15T15:03:50.198Z,3.80
2022-10-15T15:06:20.718Z,4.05
2022-10-15T15:08:51.751Z,3.40
2022-10-15T15:11:26.815Z,3.52
2022-10-15T15:13:57.117Z,3.60
2022-10-15T15:16:27.652Z,3.95
2022-10-15T15:18:58.783Z,3.50
2022-10-15T15:21:29.110Z,4.35
2022-10-15T15:24:00.050Z,4.45
2022-10-15T15:26:30.538Z,4.05
2022-10-15T15:29:01.006Z,3.70
2022-10-15T15:31:33.084Z,4.55
2022-10-15T15:34:03.432Z,4.08
2022-10-15T15:36:33.842Z,4.40
2022-10-15T15:39:04.418Z,3.77
2022-10-15T15:41:34.907Z,4.33
2022-10-15T15:44:07.053Z,4.47
2022-10-15T15:46:37.445Z,4.30
2022-10-15T15:49:07.899Z,5.15
2022-10-15T15:51:38.367Z,8.05
2022-10-15T15:54:10.561Z,7.97
2022-10-15T15:56:41.400Z,10.78
2022-10-15T15:59:11.836Z,12.30
2022-10-15T16:01:42.241Z,7.70
2022-10-15T16:04:12.938Z,6.25
2022-10-15T16:06:43.755Z,5.40
2022-10-15T16:09:14.075Z,5.55
2022-10-15T16:11:44.801Z,5.05
2022-10-15T16:14:15.177Z,4.97
2022-10-15T16:16:45.687Z,5.50
2022-10-15T16:19:16.006Z,5.10
2022-10-15T16:21:46.668Z,5.53
2022-10-15T16:24:17.112Z,4.37
2022-10-15T16:26:47.644Z,5.00
2022-10-15T16:29:18.043Z,5.00
2022-10-15T16:31:48.503Z,4.55
2022-10-15T16:34:18.935Z,5.05
2022-10-15T16:36:49.251Z,5.12
2022-10-15T16:39:19.690Z,6.15
2022-10-15T16:41:50.112Z,10.32
2022-10-15T16:44:20.798Z,5.45
2022-10-15T16:46:51.206Z,4.72
2022-10-15T16:49:22.232Z,5.55
2022-10-15T16:51:52.736Z,5.12
2022-10-15T16:54:23.030Z,5.00
2022-10-15T16:56:53.700Z,7.28
2022-10-15T16:59:24.073Z,6.60
2022-10-15T17:01:54.710Z,6.95
2022-10-15T17:04:25.138Z,6.35
2022-10-15T17:06:55.676Z,7.58
2022-10-15T17:09:26.111Z,6.08
2022-10-15T17:11:56.525Z,7.28
2022-10-15T17:14:26.911Z,8.53
2022-10-15T17:16:57.358Z,6.75
2022-10-15T17:19:30.581Z,6.85
2022-10-15T17:21:59.910Z,6.87
2022-10-15T17:24:30.268Z,7.17
2022-10-15T17:27:00.766Z,6.45
2022-10-15T17:29:33.409Z,7.25
2022-10-15T17:32:03.498Z,8.00
2022-10-15T17:34:34.327Z,7.40
2022-10-15T17:37:05.157Z,8.08
2022-10-15T17:39:35.580Z,7.25
2022-10-15T17:42:06.115Z,7.40
2022-10-15T17:44:36.622Z,7.62
2022-10-15T17:47:08.680Z,7.72
2022-10-15T17:49:39.108Z,8.28
2022-10-15T17:52:10.081Z,7.58
2022-10-15T17:54:40.477Z,8.35
2022-10-15T17:57:10.861Z,8.25
2022-10-15T17:59:41.269Z,8.58
2022-10-15T18:02:11.723Z,8.38
2022-10-15T18:04:42.133Z,8.83
2022-10-15T18:07:14.221Z,9.53
2022-10-15T18:09:45.759Z,10.18
2022-10-15T18:12:16.283Z,9.28
2022-10-15T18:14:46.782Z,8.68
2022-10-15T18:17:18.865Z,8.55
2022-10-15T18:19:49.275Z,9.83
2022-10-15T18:22:20.458Z,9.55
2022-10-15T18:24:51.579Z,9.73
2022-10-15T18:27:22.021Z,9.33
2022-10-15T18:29:52.378Z,9.10
2022-10-15T18:32:22.815Z,9.70
2022-10-15T18:34:54.820Z,9.03
2022-10-15T18:37:25.909Z,8.50
2022-10-15T18:39:56.922Z,9.50
2022-10-15T18:42:27.612Z,8.53
2022-10-15T18:44:58.283Z,8.10
2022-10-15T18:47:28.714Z,8.15
2022-10-15T18:50:00.092Z,7.72
2022-10-15T18:52:39.447Z,8.05
2022-10-15T18:55:03.602Z,6.78
2022-10-15T18:57:34.784Z,7.22
2022-10-15T19:00:06.248Z,6.90
2022-10-15T19:02:36.671Z,6.50
2022-10-15T19:05:08.691Z,6.20
2022-10-15T19:07:39.064Z,6.92
2022-10-15T19:10:09.919Z,5.83
2022-10-15T19:12:40.248Z,5.75
2022-10-15T19:15:11.594Z,5.70
2022-10-15T19:17:41.959Z,5.80
2022-10-15T19:20:12.507Z,6.10
2022-10-15T19:22:42.933Z,5.95
2022-10-15T19:25:13.479Z,7.08
2022-10-15T19:27:43.864Z,5.87
2022-10-15T19:30:15.766Z,6.22
2022-10-15T19:32:48.049Z,5.25
2022-10-15T19:35:18.466Z,5.60
2022-10-15T19:37:48.957Z,6.15
2022-10-15T19:40:19.262Z,5.55
2022-10-15T19:42:49.583Z,5.60
2022-10-15T19:45:19.939Z,5.62
2022-10-15T19:47:50.196Z,5.87
2022-10-15T19:50:20.601Z,5.58
2022-10-15T19:52:51.394Z,5.58
2022-10-15T19:55:22.572Z,5.58
2022-10-15T19:57:53.743Z,5.53
2022-10-15T20:00:24.165Z,5.87
2022-10-15T20:02:54.892Z,6.37
2022-10-15T20:05:25.359Z,5.10
2022-10-15T20:07:55.883Z,6.00
2022-10-15T20:10:26.650Z,4.92
2022-10-15T20:12:57.158Z,5.20
2022-10-15T20:15:27.464Z,5.47
2022-10-15T20:17:57.875Z,7.20
2022-10-15T20:20:28.307Z,5.42
2022-10-15T20:22:58.605Z,5.37
2022-10-15T20:25:29.218Z,5.40
2022-10-15T20:28:00.037Z,5.50
2022-10-15T20:30:30.561Z,5.17
2022-10-15T20:33:00.936Z,4.95
2022-10-15T20:35:34.116Z,5.47
2022-10-15T20:38:05.484Z,5.22
2022-10-15T20:40:38.196Z,5.75
2022-10-15T20:43:09.434Z,5.20
2022-10-15T20:45:42.844Z,5.25
2022-10-15T20:48:19.052Z,7.95
2022-10-15T20:50:51.409Z,4.97
2022-10-15T20:53:23.658Z,5.30
2022-10-15T20:55:54.011Z,6.28
2022-10-15T20:58:25.470Z,5.03
2022-10-15T21:00:55.948Z,4.72
2022-10-15T21:03:26.990Z,4.95
2022-10-15T21:05:57.463Z,4.70
2022-10-15T21:08:27.899Z,4.97
2022-10-15T21:11:05.997Z,4.83
2022-10-15T21:13:36.642Z,5.00
2022-10-15T21:16:08.502Z,4.70
2022-10-15T21:18:39.288Z,4.75
2022-10-15T21:21:12.210Z,4.33
2022-10-15T21:23:43.671Z,4.20
2022-10-15T21:26:16.904Z,4.87
2022-10-15T21:28:47.328Z,4.25
2022-10-15T21:31:18.772Z,4.80
2022-10-15T21:33:49.259Z,4.53
2022-10-15T21:36:26.174Z,4.03
2022-10-15T21:39:06.632Z,4.53
2022-10-15T21:41:38.764Z,4.17
2022-10-15T21:44:09.701Z,7.65
2022-10-15T21:46:43.582Z,6.80
2022-10-15T21:49:13.955Z,4.20
2022-10-15T21:51:44.334Z,4.20
2022-10-15T21:54:14.716Z,4.37
2022-10-15T21:56:45.459Z,4.03
2022-10-15T21:59:15.759Z,4.05
2022-10-15T22:01:46.134Z,4.03
2022-10-15T22:04:16.617Z,4.08
2022-10-15T22:06:46.972Z,3.42
2022-10-15T22:09:17.358Z,3.80
2022-10-15T22:11:47.733Z,4.40
2022-10-15T22:14:18.030Z,4.55
2022-10-15T22:16:48.423Z,4.53
2022-10-15T22:19:19.074Z,3.50
2022-10-15T22:21:49.520Z,4.00
2022-10-15T22:24:21.356Z,3.50
2022-10-15T22:26:53.807Z,3.12
2022-10-15T22:29:27.417Z,3.00
2022-10-15T22:31:58.739Z,3.30
2022-10-15T22:34:29.167Z,3.50
2022-10-15T22:36:59.590Z,3.10
2022-10-15T22:39:30.192Z,3.42
2022-10-15T22:42:00.542Z,3.00
2022-10-15T22:44:30.946Z,3.92
2022-10-15T22:47:01.338Z,3.35
2022-10-15T22:49:31.731Z,3.40
2022-10-15T22:52:02.069Z,2.87
2022-10-15T22:54:32.295Z,3.52
2022-10-15T22:57:02.717Z,2.85
2022-10-15T22:59:33.306Z,3.00
2022-10-15T23:02:04.212Z,3.10
2022-10-15T23:04:34.586Z,2.90
2022-10-15T23:07:05.175Z,3.00
2022-10-15T23:09:35.722Z,3.75
2022-10-15T23:12:06.232Z,2.87
2022-10-15T23:14:36.986Z,2.67
2022-10-15T23:17:07.305Z,3.08
2022-10-15T23:19:37.676Z,3.00
2022-10-15T23:22:09.927Z,4.15
2022-10-15T23:24:40.341Z,3.67
2022-10-15T23:27:11.034Z,2.70
2022-10-15T23:29:41.346Z,2.98
2022-10-15T23:32:11.950Z,2.87
2022-10-15T23:34:42.270Z,3.15
2022-10-15T23:37:12.634Z,2.90
2022-10-15T23:39:42.973Z,2.90
2022-10-15T23:42:13.469Z,2.60
2022-10-15T23:44:43.772Z,2.92
2022-10-15T23:47:14.173Z,2.90
2022-10-15T23:49:44.525Z,2.80
2022-10-15T23:52:15.131Z,2.77
2022-10-15T23:54:45.443Z,2.85
2022-10-15T23:57:15.835Z,2.80
2022-10-15T23:59:46.128Z,3.20
